sensor_id;sensor_type;location;lat;lon;timestamp;P1;durP1;ratioP1;P2;durP2;ratioP2
44816;SDS011;30529;53.570;9.964;2022-11-20T00:01:08;4.03;;;2.43;;
44816;SDS011;30529;53.570;9.964;2022-11-20T00:03:38;5.40;;;2.60;;
44816;SDS011;30529;53.570;9.964;2022-11-20T00:06:09;4.73;;;2.37;;
44816;SDS011;30529;53.570;9.964;2022-11-20T00:08:38;3.50;;;2.53;;
44816;SDS011;30529;53.570;9.964;2022-11-20T00:11:05;5.00;;;2.40;;
44816;SDS011;30529;53.570;9.964;2022-11-20T00:13:33;4.00;;;2.47;;
44816;SDS011;30529;53.570;9.964;2022-11-20T00:16:00;4.17;;;2.30;;
44816;SDS011;30529;53.570;9.964;2022-11-20T00:18:27;5.60;;;2.67;;
44816;SDS011;30529;53.570;9.964;2022-11-20T00:20:54;3.90;;;2.67;;
44816;SDS011;30529;53.570;9.964;2022-11-20T00:23:29;3.70;;;2.50;;
44816;SDS011;30529;53.570;9.964;2022-11-20T00:25:56;4.03;;;2.30;;
44816;SDS011;30529;53.570;9.964;2022-11-20T00:28:26;5.60;;;3.23;;
44816;SDS011;30529;53.570;9.964;2022-11-20T00:30:52;4.03;;;2.50;;
44816;SDS011;30529;53.570;9.964;2022-11-20T00:33:25;4.13;;;2.33;;
44816;SDS011;30529;53.570;9.964;2022-11-20T00:35:51;4.43;;;2.50;;
44816;SDS011;30529;53.570;9.964;2022-11-20T00:38:17;5.70;;;3.30;;
44816;SDS011;30529;53.570;9.964;2022-11-20T00:40:43;5.37;;;3.20;;
44816;SDS011;30529;53.570;9.964;2022-11-20T00:43:09;4.47;;;3.17;;
44816;SDS011;30529;53.570;9.964;2022-11-20T00:45:35;3.60;;;2.70;;
44816;SDS011;30529;53.570;9.964;2022-11-20T00:48:02;3.23;;;2.20;;
44816;SDS011;30529;53.570;9.964;2022-11-20T00:50:28;5.00;;;3.00;;
44816;SDS011;30529;53.570;9.964;2022-11-20T00:52:54;5.00;;;3.03;;
44816;SDS011;30529;53.570;9.964;2022-11-20T00:55:20;3.73;;;2.50;;
44816;SDS011;30529;53.570;9.964;2022-11-20T00:57:47;3.73;;;2.57;;
44816;SDS011;30529;53.570;9.964;2022-11-20T01:00:13;5.87;;;2.70;;
44816;SDS011;30529;53.570;9.964;2022-11-20T01:02:40;3.63;;;2.40;;
44816;SDS011;30529;53.570;9.964;2022-11-20T01:05:06;6.90;;;2.77;;
44816;SDS011;30529;53.570;9.964;2022-11-20T01:07:32;3.47;;;2.50;;
44816;SDS011;30529;53.570;9.964;2022-11-20T01:09:58;4.63;;;2.43;;
44816;SDS011;30529;53.570;9.964;2022-11-20T01:12:24;3.77;;;2.50;;
44816;SDS011;30529;53.570;9.964;2022-11-20T01:14:50;4.87;;;2.60;;
44816;SDS011;30529;53.570;9.964;2022-11-20T01:17:16;4.43;;;2.50;;
44816;SDS011;30529;53.570;9.964;2022-11-20T01:19:43;4.13;;;2.50;;
44816;SDS011;30529;53.570;9.964;2022-11-20T01:22:09;6.00;;;3.13;;
44816;SDS011;30529;53.570;9.964;2022-11-20T01:24:35;5.87;;;4.03;;
44816;SDS011;30529;53.570;9.964;2022-11-20T01:27:01;7.27;;;2.83;;
44816;SDS011;30529;53.570;9.964;2022-11-20T01:29:28;4.23;;;2.37;;
44816;SDS011;30529;53.570;9.964;2022-11-20T01:31:54;4.23;;;2.83;;
44816;SDS011;30529;53.570;9.964;2022-11-20T01:34:20;3.40;;;2.50;;
44816;SDS011;30529;53.570;9.964;2022-11-20T01:36:48;4.60;;;2.50;;
44816;SDS011;30529;53.570;9.964;2022-11-20T01:39:17;5.13;;;3.00;;
44816;SDS011;30529;53.570;9.964;2022-11-20T01:41:53;5.80;;;3.20;;
44816;SDS011;30529;53.570;9.964;2022-11-20T01:45:00;2.83;;;2.40;;
44816;SDS011;30529;53.570;9.964;2022-11-20T01:47:36;3.83;;;2.57;;
44816;SDS011;30529;53.570;9.964;2022-11-20T01:52:41;3.33;;;2.47;;
44816;SDS011;30529;53.570;9.964;2022-11-20T01:55:13;4.03;;;2.30;;
44816;SDS011;30529;53.570;9.964;2022-11-20T01:57:44;3.67;;;2.23;;
44816;SDS011;30529;53.570;9.964;2022-11-20T02:00:13;2.67;;;2.23;;
44816;SDS011;30529;53.570;9.964;2022-11-20T02:02:42;7.57;;;2.40;;
44816;SDS011;30529;53.570;9.964;2022-11-20T02:08:02;4.80;;;2.93;;
44816;SDS011;30529;53.570;9.964;2022-11-20T02:10:30;4.33;;;2.73;;
44816;SDS011;30529;53.570;9.964;2022-11-20T02:12:57;6.07;;;2.70;;
44816;SDS011;30529;53.570;9.964;2022-11-20T02:15:42;3.30;;;2.23;;
44816;SDS011;30529;53.570;9.964;2022-11-20T02:18:10;2.40;;;2.00;;
44816;SDS011;30529;53.570;9.964;2022-11-20T02:20:40;5.90;;;2.47;;
44816;SDS011;30529;53.570;9.964;2022-11-20T02:25:35;3.37;;;2.33;;
44816;SDS011;30529;53.570;9.964;2022-11-20T02:28:03;7.03;;;3.57;;
44816;SDS011;30529;53.570;9.964;2022-11-20T02:30:30;5.40;;;2.90;;
44816;SDS011;30529;53.570;9.964;2022-11-20T02:32:57;6.13;;;3.10;;
44816;SDS011;30529;53.570;9.964;2022-11-20T02:37:51;5.50;;;2.43;;
44816;SDS011;30529;53.570;9.964;2022-11-20T02:40:20;2.37;;;2.00;;
44816;SDS011;30529;53.570;9.964;2022-11-20T02:42:46;3.30;;;2.27;;
44816;SDS011;30529;53.570;9.964;2022-11-20T02:45:12;4.97;;;2.23;;
44816;SDS011;30529;53.570;9.964;2022-11-20T02:47:38;3.27;;;2.40;;
44816;SDS011;30529;53.570;9.964;2022-11-20T02:50:05;3.17;;;2.40;;
44816;SDS011;30529;53.570;9.964;2022-11-20T02:52:31;4.50;;;2.80;;
44816;SDS011;30529;53.570;9.964;2022-11-20T02:54:57;4.80;;;2.60;;
44816;SDS011;30529;53.570;9.964;2022-11-20T02:57:24;3.60;;;2.20;;
44816;SDS011;30529;53.570;9.964;2022-11-20T02:59:50;3.50;;;2.40;;
44816;SDS011;30529;53.570;9.964;2022-11-20T03:02:16;5.70;;;2.63;;
44816;SDS011;30529;53.570;9.964;2022-11-20T03:04:42;5.10;;;3.43;;
44816;SDS011;30529;53.570;9.964;2022-11-20T03:07:08;9.63;;;2.60;;
44816;SDS011;30529;53.570;9.964;2022-11-20T03:09:35;4.87;;;2.70;;
44816;SDS011;30529;53.570;9.964;2022-11-20T03:12:01;5.10;;;2.90;;
44816;SDS011;30529;53.570;9.964;2022-11-20T03:14:28;3.77;;;2.43;;
44816;SDS011;30529;53.570;9.964;2022-11-20T03:16:54;3.87;;;2.13;;
44816;SDS011;30529;53.570;9.964;2022-11-20T03:19:21;3.73;;;2.53;;
44816;SDS011;30529;53.570;9.964;2022-11-20T03:21:47;4.27;;;2.47;;
44816;SDS011;30529;53.570;9.964;2022-11-20T03:24:13;3.43;;;2.30;;
44816;SDS011;30529;53.570;9.964;2022-11-20T03:26:40;5.50;;;2.40;;
44816;SDS011;30529;53.570;9.964;2022-11-20T03:29:06;4.03;;;2.60;;
44816;SDS011;30529;53.570;9.964;2022-11-20T03:31:35;3.43;;;2.53;;
44816;SDS011;30529;53.570;9.964;2022-11-20T03:34:03;3.90;;;2.37;;
44816;SDS011;30529;53.570;9.964;2022-11-20T03:36:29;4.00;;;2.40;;
44816;SDS011;30529;53.570;9.964;2022-11-20T03:38:56;3.97;;;2.60;;
44816;SDS011;30529;53.570;9.964;2022-11-20T03:41:24;3.33;;;2.37;;
44816;SDS011;30529;53.570;9.964;2022-11-20T03:43:52;3.70;;;2.47;;
44816;SDS011;30529;53.570;9.964;2022-11-20T03:46:20;5.13;;;2.47;;
44816;SDS011;30529;53.570;9.964;2022-11-20T03:48:46;3.60;;;2.30;;
44816;SDS011;30529;53.570;9.964;2022-11-20T03:51:14;3.37;;;2.20;;
44816;SDS011;30529;53.570;9.964;2022-11-20T03:53:45;3.63;;;2.27;;
44816;SDS011;30529;53.570;9.964;2022-11-20T03:56:14;5.17;;;2.37;;
44816;SDS011;30529;53.570;9.964;2022-11-20T03:58:42;4.40;;;2.60;;
44816;SDS011;30529;53.570;9.964;2022-11-20T04:01:09;4.53;;;2.70;;
44816;SDS011;30529;53.570;9.964;2022-11-20T04:03:37;3.57;;;2.13;;
44816;SDS011;30529;53.570;9.964;2022-11-20T04:06:05;3.30;;;2.30;;
44816;SDS011;30529;53.570;9.964;2022-11-20T04:08:33;3.57;;;2.83;;
44816;SDS011;30529;53.570;9.964;2022-11-20T04:11:16;3.47;;;2.50;;
44816;SDS011;30529;53.570;9.964;2022-11-20T04:13:48;4.13;;;3.13;;
44816;SDS011;30529;53.570;9.964;2022-11-20T04:16:37;5.17;;;2.67;;
44816;SDS011;30529;53.570;9.964;2022-11-20T04:19:04;4.43;;;3.27;;
44816;SDS011;30529;53.570;9.964;2022-11-20T04:21:34;3.23;;;2.57;;
44816;SDS011;30529;53.570;9.964;2022-11-20T04:24:01;5.43;;;2.40;;
44816;SDS011;30529;53.570;9.964;2022-11-20T04:26:28;4.90;;;2.43;;
44816;SDS011;30529;53.570;9.964;2022-11-20T04:28:55;5.43;;;2.57;;
44816;SDS011;30529;53.570;9.964;2022-11-20T04:31:23;5.83;;;2.33;;
44816;SDS011;30529;53.570;9.964;2022-11-20T04:33:51;3.50;;;2.77;;
44816;SDS011;30529;53.570;9.964;2022-11-20T04:36:27;4.00;;;2.67;;
44816;SDS011;30529;53.570;9.964;2022-11-20T04:39:05;3.37;;;2.33;;
44816;SDS011;30529;53.570;9.964;2022-11-20T04:41:33;3.40;;;2.63;;
44816;SDS011;30529;53.570;9.964;2022-11-20T04:44:01;4.20;;;2.80;;
44816;SDS011;30529;53.570;9.964;2022-11-20T04:46:30;3.33;;;2.60;;
44816;SDS011;30529;53.570;9.964;2022-11-20T04:48:57;4.63;;;2.57;;
44816;SDS011;30529;53.570;9.964;2022-11-20T04:51:24;4.93;;;2.43;;
44816;SDS011;30529;53.570;9.964;2022-11-20T04:53:50;3.00;;;2.00;;
44816;SDS011;30529;53.570;9.964;2022-11-20T04:56:16;3.43;;;2.50;;
44816;SDS011;30529;53.570;9.964;2022-11-20T04:58:42;3.67;;;2.37;;
44816;SDS011;30529;53.570;9.964;2022-11-20T05:01:11;5.00;;;3.03;;
44816;SDS011;30529;53.570;9.964;2022-11-20T05:03:39;6.00;;;2.60;;
44816;SDS011;30529;53.570;9.964;2022-11-20T05:06:06;4.97;;;2.60;;
44816;SDS011;30529;53.570;9.964;2022-11-20T05:08:33;3.80;;;2.33;;
44816;SDS011;30529;53.570;9.964;2022-11-20T05:11:03;3.37;;;2.50;;
44816;SDS011;30529;53.570;9.964;2022-11-20T05:13:30;3.63;;;2.70;;
44816;SDS011;30529;53.570;9.964;2022-11-20T05:16:06;3.47;;;2.23;;
44816;SDS011;30529;53.570;9.964;2022-11-20T05:18:34;6.17;;;2.73;;
44816;SDS011;30529;53.570;9.964;2022-11-20T05:21:01;4.47;;;2.93;;
44816;SDS011;30529;53.570;9.964;2022-11-20T05:23:28;4.27;;;2.90;;
44816;SDS011;30529;53.570;9.964;2022-11-20T05:25:55;5.90;;;3.07;;
44816;SDS011;30529;53.570;9.964;2022-11-20T05:28:22;5.90;;;3.37;;
44816;SDS011;30529;53.570;9.964;2022-11-20T05:30:49;6.60;;;3.27;;
44816;SDS011;30529;53.570;9.964;2022-11-20T05:33:16;6.07;;;3.13;;
44816;SDS011;30529;53.570;9.964;2022-11-20T05:35:42;6.30;;;3.30;;
44816;SDS011;30529;53.570;9.964;2022-11-20T05:38:09;6.17;;;3.37;;
44816;SDS011;30529;53.570;9.964;2022-11-20T05:40:35;4.53;;;3.00;;
44816;SDS011;30529;53.570;9.964;2022-11-20T05:43:01;4.03;;;2.90;;
44816;SDS011;30529;53.570;9.964;2022-11-20T05:45:28;5.37;;;2.97;;
44816;SDS011;30529;53.570;9.964;2022-11-20T05:47:57;6.40;;;2.80;;
44816;SDS011;30529;53.570;9.964;2022-11-20T05:50:24;3.57;;;2.53;;
44816;SDS011;30529;53.570;9.964;2022-11-20T05:52:51;5.13;;;2.87;;
44816;SDS011;30529;53.570;9.964;2022-11-20T05:55:17;2.83;;;2.50;;
44816;SDS011;30529;53.570;9.964;2022-11-20T05:57:43;4.73;;;2.90;;
44816;SDS011;30529;53.570;9.964;2022-11-20T06:00:09;3.83;;;2.57;;
44816;SDS011;30529;53.570;9.964;2022-11-20T06:02:36;5.33;;;3.30;;
44816;SDS011;30529;53.570;9.964;2022-11-20T06:05:03;5.77;;;3.30;;
44816;SDS011;30529;53.570;9.964;2022-11-20T06:07:29;5.33;;;3.00;;
44816;SDS011;30529;53.570;9.964;2022-11-20T06:09:55;5.60;;;3.20;;
44816;SDS011;30529;53.570;9.964;2022-11-20T06:12:21;9.37;;;3.80;;
44816;SDS011;30529;53.570;9.964;2022-11-20T06:14:48;5.50;;;3.80;;
44816;SDS011;30529;53.570;9.964;2022-11-20T06:17:14;6.93;;;4.17;;
44816;SDS011;30529;53.570;9.964;2022-11-20T06:19:40;8.13;;;5.00;;
44816;SDS011;30529;53.570;9.964;2022-11-20T06:22:06;7.17;;;4.93;;
44816;SDS011;30529;53.570;9.964;2022-11-20T06:24:32;7.80;;;4.93;;
44816;SDS011;30529;53.570;9.964;2022-11-20T06:26:59;7.67;;;4.80;;
44816;SDS011;30529;53.570;9.964;2022-11-20T06:29:25;9.00;;;5.03;;
44816;SDS011;30529;53.570;9.964;2022-11-20T06:31:51;11.47;;;5.00;;
44816;SDS011;30529;53.570;9.964;2022-11-20T06:34:17;10.33;;;4.20;;
44816;SDS011;30529;53.570;9.964;2022-11-20T06:36:43;6.63;;;4.30;;
44816;SDS011;30529;53.570;9.964;2022-11-20T06:39:09;7.33;;;4.30;;
44816;SDS011;30529;53.570;9.964;2022-11-20T06:41:35;5.57;;;3.40;;
44816;SDS011;30529;53.570;9.964;2022-11-20T06:44:03;6.43;;;3.60;;
44816;SDS011;30529;53.570;9.964;2022-11-20T06:46:31;5.00;;;3.30;;
44816;SDS011;30529;53.570;9.964;2022-11-20T06:48:57;5.53;;;3.17;;
44816;SDS011;30529;53.570;9.964;2022-11-20T06:51:24;4.13;;;2.90;;
44816;SDS011;30529;53.570;9.964;2022-11-20T06:53:50;4.40;;;3.00;;
44816;SDS011;30529;53.570;9.964;2022-11-20T06:56:16;4.63;;;3.40;;
44816;SDS011;30529;53.570;9.964;2022-11-20T06:58:42;6.27;;;3.63;;
44816;SDS011;30529;53.570;9.964;2022-11-20T07:01:09;4.30;;;3.20;;
44816;SDS011;30529;53.570;9.964;2022-11-20T07:03:37;6.00;;;3.13;;
44816;SDS011;30529;53.570;9.964;2022-11-20T07:06:04;4.10;;;2.97;;
44816;SDS011;30529;53.570;9.964;2022-11-20T07:08:31;3.30;;;2.40;;
44816;SDS011;30529;53.570;9.964;2022-11-20T07:10:59;5.53;;;3.17;;
44816;SDS011;30529;53.570;9.964;2022-11-20T07:13:27;3.93;;;2.50;;
44816;SDS011;30529;53.570;9.964;2022-11-20T07:15:54;4.23;;;3.00;;
44816;SDS011;30529;53.570;9.964;2022-11-20T07:18:20;6.03;;;2.60;;
44816;SDS011;30529;53.570;9.964;2022-11-20T07:20:47;4.63;;;2.93;;
44816;SDS011;30529;53.570;9.964;2022-11-20T07:23:13;4.90;;;2.60;;
44816;SDS011;30529;53.570;9.964;2022-11-20T07:25:39;5.20;;;2.63;;
44816;SDS011;30529;53.570;9.964;2022-11-20T07:28:05;4.17;;;3.03;;
44816;SDS011;30529;53.570;9.964;2022-11-20T07:30:31;3.03;;;2.50;;
44816;SDS011;30529;53.570;9.964;2022-11-20T07:32:58;6.83;;;2.70;;
44816;SDS011;30529;53.570;9.964;2022-11-20T07:35:24;3.30;;;2.63;;
44816;SDS011;30529;53.570;9.964;2022-11-20T07:37:51;4.87;;;3.03;;
44816;SDS011;30529;53.570;9.964;2022-11-20T07:40:17;4.53;;;2.80;;
44816;SDS011;30529;53.570;9.964;2022-11-20T07:42:50;4.93;;;3.03;;
44816;SDS011;30529;53.570;9.964;2022-11-20T07:45:18;3.47;;;2.80;;
44816;SDS011;30529;53.570;9.964;2022-11-20T07:47:45;4.13;;;2.80;;
44816;SDS011;30529;53.570;9.964;2022-11-20T07:50:11;5.77;;;2.83;;
44816;SDS011;30529;53.570;9.964;2022-11-20T07:52:38;3.97;;;3.40;;
44816;SDS011;30529;53.570;9.964;2022-11-20T07:55:04;3.63;;;2.70;;
44816;SDS011;30529;53.570;9.964;2022-11-20T07:57:31;4.20;;;2.50;;
44816;SDS011;30529;53.570;9.964;2022-11-20T07:59:57;4.53;;;2.80;;
44816;SDS011;30529;53.570;9.964;2022-11-20T08:02:23;5.43;;;3.33;;
44816;SDS011;30529;53.570;9.964;2022-11-20T08:04:50;5.60;;;3.10;;
44816;SDS011;30529;53.570;9.964;2022-11-20T08:07:16;4.03;;;2.80;;
44816;SDS011;30529;53.570;9.964;2022-11-20T08:09:42;3.77;;;2.70;;
44816;SDS011;30529;53.570;9.964;2022-11-20T08:12:09;6.83;;;3.20;;
44816;SDS011;30529;53.570;9.964;2022-11-20T08:15:02;4.60;;;2.87;;
44816;SDS011;30529;53.570;9.964;2022-11-20T08:17:29;8.13;;;4.07;;
44816;SDS011;30529;53.570;9.964;2022-11-20T08:19:55;4.80;;;2.97;;
44816;SDS011;30529;53.570;9.964;2022-11-20T08:22:21;3.70;;;2.67;;
44816;SDS011;30529;53.570;9.964;2022-11-20T08:24:47;3.50;;;2.77;;
44816;SDS011;30529;53.570;9.964;2022-11-20T08:27:14;3.70;;;3.00;;
44816;SDS011;30529;53.570;9.964;2022-11-20T08:29:40;4.33;;;2.93;;
44816;SDS011;30529;53.570;9.964;2022-11-20T08:32:06;2.80;;;2.27;;
44816;SDS011;30529;53.570;9.964;2022-11-20T08:34:32;3.40;;;2.70;;
44816;SDS011;30529;53.570;9.964;2022-11-20T08:36:58;3.10;;;2.57;;
44816;SDS011;30529;53.570;9.964;2022-11-20T08:39:24;3.63;;;2.40;;
44816;SDS011;30529;53.570;9.964;2022-11-20T08:41:50;3.37;;;2.30;;
44816;SDS011;30529;53.570;9.964;2022-11-20T08:44:17;4.17;;;2.47;;
44816;SDS011;30529;53.570;9.964;2022-11-20T08:46:43;4.13;;;2.40;;
44816;SDS011;30529;53.570;9.964;2022-11-20T08:49:10;2.93;;;2.07;;
44816;SDS011;30529;53.570;9.964;2022-11-20T08:51:37;4.33;;;2.20;;
44816;SDS011;30529;53.570;9.964;2022-11-20T08:54:04;4.10;;;2.60;;
44816;SDS011;30529;53.570;9.964;2022-11-20T08:56:30;6.37;;;2.33;;
44816;SDS011;30529;53.570;9.964;2022-11-20T08:58:57;2.97;;;2.00;;
44816;SDS011;30529;53.570;9.964;2022-11-20T09:01:25;3.80;;;2.33;;
44816;SDS011;30529;53.570;9.964;2022-11-20T09:03:51;2.43;;;2.10;;
44816;SDS011;30529;53.570;9.964;2022-11-20T09:06:18;3.70;;;2.23;;
44816;SDS011;30529;53.570;9.964;2022-11-20T09:08:44;3.13;;;2.03;;
44816;SDS011;30529;53.570;9.964;2022-11-20T09:11:10;3.60;;;2.77;;
44816;SDS011;30529;53.570;9.964;2022-11-20T09:13:36;2.60;;;2.37;;
44816;SDS011;30529;53.570;9.964;2022-11-20T09:16:06;3.07;;;2.43;;
44816;SDS011;30529;53.570;9.964;2022-11-20T09:18:34;3.07;;;2.63;;
44816;SDS011;30529;53.570;9.964;2022-11-20T09:21:05;5.80;;;2.67;;
44816;SDS011;30529;53.570;9.964;2022-11-20T09:23:33;5.10;;;3.07;;
44816;SDS011;30529;53.570;9.964;2022-11-20T09:26:01;3.47;;;2.90;;
44816;SDS011;30529;53.570;9.964;2022-11-20T09:28:29;3.80;;;2.60;;
44816;SDS011;30529;53.570;9.964;2022-11-20T09:30:55;3.53;;;2.63;;
44816;SDS011;30529;53.570;9.964;2022-11-20T09:33:22;3.37;;;2.50;;
44816;SDS011;30529;53.570;9.964;2022-11-20T09:35:48;4.60;;;2.73;;
44816;SDS011;30529;53.570;9.964;2022-11-20T09:38:14;4.07;;;2.93;;
44816;SDS011;30529;53.570;9.964;2022-11-20T09:40:43;5.23;;;2.50;;
44816;SDS011;30529;53.570;9.964;2022-11-20T09:43:20;3.93;;;3.10;;
44816;SDS011;30529;53.570;9.964;2022-11-20T09:46:14;4.50;;;2.50;;
44816;SDS011;30529;53.570;9.964;2022-11-20T09:51:53;5.63;;;2.77;;
44816;SDS011;30529;53.570;9.964;2022-11-20T09:54:33;2.93;;;2.30;;
44816;SDS011;30529;53.570;9.964;2022-11-20T09:57:03;6.50;;;2.33;;
44816;SDS011;30529;53.570;9.964;2022-11-20T09:59:43;4.00;;;2.43;;
44816;SDS011;30529;53.570;9.964;2022-11-20T10:02:16;2.20;;;2.00;;
44816;SDS011;30529;53.570;9.964;2022-11-20T10:08:17;2.20;;;2.00;;
44816;SDS011;30529;53.570;9.964;2022-11-20T10:10:42;2.87;;;2.20;;
44816;SDS011;30529;53.570;9.964;2022-11-20T10:30:15;3.53;;;2.53;;
44816;SDS011;30529;53.570;9.964;2022-11-20T10:32:46;2.57;;;2.37;;
44816;SDS011;30529;53.570;9.964;2022-11-20T10:35:23;3.47;;;2.80;;
44816;SDS011;30529;53.570;9.964;2022-11-20T10:38:01;2.33;;;2.13;;
44816;SDS011;30529;53.570;9.964;2022-11-20T10:40:33;3.43;;;2.47;;
44816;SDS011;30529;53.570;9.964;2022-11-20T10:43:32;2.67;;;2.40;;
44816;SDS011;30529;53.570;9.964;2022-11-20T10:46:04;4.43;;;2.57;;
44816;SDS011;30529;53.570;9.964;2022-11-20T10:48:36;3.00;;;2.40;;
44816;SDS011;30529;53.570;9.964;2022-11-20T10:53:58;5.27;;;2.47;;
44816;SDS011;30529;53.570;9.964;2022-11-20T10:56:45;3.40;;;2.50;;
44816;SDS011;30529;53.570;9.964;2022-11-20T11:02:23;4.30;;;2.90;;
44816;SDS011;30529;53.570;9.964;2022-11-20T11:04:56;3.90;;;2.60;;
44816;SDS011;30529;53.570;9.964;2022-11-20T11:07:30;2.47;;;2.10;;
44816;SDS011;30529;53.570;9.964;2022-11-20T11:10:12;2.97;;;2.30;;
44816;SDS011;30529;53.570;9.964;2022-11-20T11:13:28;2.63;;;2.17;;
44816;SDS011;30529;53.570;9.964;2022-11-20T11:15:56;2.60;;;2.23;;
44816;SDS011;30529;53.570;9.964;2022-11-20T11:18:24;2.90;;;2.10;;
44816;SDS011;30529;53.570;9.964;2022-11-20T11:20:55;3.37;;;2.30;;
44816;SDS011;30529;53.570;9.964;2022-11-20T11:23:33;2.97;;;2.23;;
44816;SDS011;30529;53.570;9.964;2022-11-20T11:26:02;3.63;;;2.20;;
44816;SDS011;30529;53.570;9.964;2022-11-20T11:28:30;4.30;;;2.50;;
44816;SDS011;30529;53.570;9.964;2022-11-20T11:30:57;3.13;;;2.37;;
44816;SDS011;30529;53.570;9.964;2022-11-20T11:35:51;2.77;;;2.20;;
44816;SDS011;30529;53.570;9.964;2022-11-20T11:38:42;2.80;;;2.50;;
44816;SDS011;30529;53.570;9.964;2022-11-20T11:41:15;3.17;;;2.23;;
44816;SDS011;30529;53.570;9.964;2022-11-20T11:43:51;4.27;;;2.43;;
44816;SDS011;30529;53.570;9.964;2022-11-20T11:46:38;2.47;;;2.23;;
44816;SDS011;30529;53.570;9.964;2022-11-20T11:49:18;3.43;;;2.63;;
44816;SDS011;30529;53.570;9.964;2022-11-20T11:54:48;3.07;;;2.43;;
44816;SDS011;30529;53.570;9.964;2022-11-20T12:00:18;2.10;;;1.90;;
44816;SDS011;30529;53.570;9.964;2022-11-20T12:07:53;2.00;;;1.60;;
44816;SDS011;30529;53.570;9.964;2022-11-20T12:16:00;1.57;;;1.47;;
44816;SDS011;30529;53.570;9.964;2022-11-20T12:18:27;1.90;;;1.63;;
44816;SDS011;30529;53.570;9.964;2022-11-20T12:23:36;2.37;;;1.60;;
44816;SDS011;30529;53.570;9.964;2022-11-20T12:26:15;2.53;;;1.80;;
44816;SDS011;30529;53.570;9.964;2022-11-20T12:39:52;2.20;;;2.00;;
44816;SDS011;30529;53.570;9.964;2022-11-20T12:42:46;2.60;;;1.70;;
44816;SDS011;30529;53.570;9.964;2022-11-20T12:48:28;3.00;;;2.40;;
44816;SDS011;30529;53.570;9.964;2022-11-20T13:01:02;3.20;;;1.90;;
44816;SDS011;30529;53.570;9.964;2022-11-20T13:03:33;2.43;;;1.87;;
44816;SDS011;30529;53.570;9.964;2022-11-20T13:06:13;3.43;;;2.10;;
44816;SDS011;30529;53.570;9.964;2022-11-20T13:09:04;3.37;;;2.10;;
44816;SDS011;30529;53.570;9.964;2022-11-20T13:11:34;2.37;;;1.70;;
44816;SDS011;30529;53.570;9.964;2022-11-20T13:14:19;2.90;;;2.10;;
44816;SDS011;30529;53.570;9.964;2022-11-20T13:19:37;2.07;;;1.60;;
44816;SDS011;30529;53.570;9.964;2022-11-20T13:22:04;1.60;;;1.50;;
44816;SDS011;30529;53.570;9.964;2022-11-20T13:24:30;2.40;;;1.63;;
44816;SDS011;30529;53.570;9.964;2022-11-20T13:27:02;3.57;;;1.63;;
44816;SDS011;30529;53.570;9.964;2022-11-20T13:29:30;2.20;;;1.70;;
44816;SDS011;30529;53.570;9.964;2022-11-20T13:32:13;1.87;;;1.57;;
44816;SDS011;30529;53.570;9.964;2022-11-20T13:34:51;2.47;;;1.93;;
44816;SDS011;30529;53.570;9.964;2022-11-20T13:37:29;4.50;;;2.10;;
44816;SDS011;30529;53.570;9.964;2022-11-20T13:43:11;1.97;;;1.60;;
44816;SDS011;30529;53.570;9.964;2022-11-20T13:45:54;2.10;;;1.60;;
44816;SDS011;30529;53.570;9.964;2022-11-20T13:48:23;1.70;;;1.60;;
44816;SDS011;30529;53.570;9.964;2022-11-20T13:50:56;1.97;;;1.50;;
44816;SDS011;30529;53.570;9.964;2022-11-20T13:59:40;2.43;;;1.60;;
44816;SDS011;30529;53.570;9.964;2022-11-20T14:02:25;2.80;;;2.07;;
44816;SDS011;30529;53.570;9.964;2022-11-20T14:04:55;2.10;;;1.70;;
44816;SDS011;30529;53.570;9.964;2022-11-20T14:07:24;3.40;;;2.07;;
44816;SDS011;30529;53.570;9.964;2022-11-20T14:09:57;2.83;;;1.73;;
44816;SDS011;30529;53.570;9.964;2022-11-20T14:12:33;2.17;;;1.97;;
44816;SDS011;30529;53.570;9.964;2022-11-20T14:14:59;3.20;;;2.00;;
44816;SDS011;30529;53.570;9.964;2022-11-20T14:20:05;2.47;;;2.07;;
44816;SDS011;30529;53.570;9.964;2022-11-20T14:22:38;3.40;;;1.73;;
44816;SDS011;30529;53.570;9.964;2022-11-20T14:25:06;4.30;;;2.90;;
44816;SDS011;30529;53.570;9.964;2022-11-20T14:27:50;3.00;;;2.30;;
44816;SDS011;30529;53.570;9.964;2022-11-20T14:30:20;3.07;;;1.97;;
44816;SDS011;30529;53.570;9.964;2022-11-20T14:32:49;2.60;;;1.90;;
44816;SDS011;30529;53.570;9.964;2022-11-20T14:35:24;4.33;;;1.93;;
44816;SDS011;30529;53.570;9.964;2022-11-20T14:37:55;2.20;;;1.80;;
44816;SDS011;30529;53.570;9.964;2022-11-20T14:43:00;3.93;;;2.30;;
44816;SDS011;30529;53.570;9.964;2022-11-20T14:45:27;3.17;;;1.73;;
44816;SDS011;30529;53.570;9.964;2022-11-20T14:47:55;2.50;;;1.97;;
44816;SDS011;30529;53.570;9.964;2022-11-20T14:50:24;4.83;;;2.73;;
44816;SDS011;30529;53.570;9.964;2022-11-20T14:52:57;4.97;;;2.60;;
44816;SDS011;30529;53.570;9.964;2022-11-20T14:55:26;2.27;;;1.93;;
44816;SDS011;30529;53.570;9.964;2022-11-20T14:58:00;3.33;;;2.03;;
44816;SDS011;30529;53.570;9.964;2022-11-20T15:00:29;4.43;;;2.50;;
44816;SDS011;30529;53.570;9.964;2022-11-20T15:02:56;3.20;;;1.97;;
44816;SDS011;30529;53.570;9.964;2022-11-20T15:05:24;2.73;;;2.00;;
44816;SDS011;30529;53.570;9.964;2022-11-20T15:08:09;3.70;;;2.63;;
44816;SDS011;30529;53.570;9.964;2022-11-20T15:10:36;3.17;;;2.33;;
44816;SDS011;30529;53.570;9.964;2022-11-20T15:13:13;3.80;;;2.17;;
44816;SDS011;30529;53.570;9.964;2022-11-20T15:15:47;2.93;;;2.63;;
44816;SDS011;30529;53.570;9.964;2022-11-20T15:18:26;4.03;;;2.33;;
44816;SDS011;30529;53.570;9.964;2022-11-20T15:20:56;4.73;;;2.70;;
44816;SDS011;30529;53.570;9.964;2022-11-20T15:23:23;4.47;;;2.70;;
44816;SDS011;30529;53.570;9.964;2022-11-20T15:25:50;3.63;;;2.50;;
44816;SDS011;30529;53.570;9.964;2022-11-20T15:30:44;5.23;;;3.37;;
44816;SDS011;30529;53.570;9.964;2022-11-20T15:33:12;3.90;;;2.33;;
44816;SDS011;30529;53.570;9.964;2022-11-20T15:35:38;4.23;;;2.77;;
44816;SDS011;30529;53.570;9.964;2022-11-20T15:38:04;3.83;;;2.70;;
44816;SDS011;30529;53.570;9.964;2022-11-20T15:40:31;4.03;;;2.43;;
44816;SDS011;30529;53.570;9.964;2022-11-20T15:42:57;5.83;;;2.50;;
44816;SDS011;30529;53.570;9.964;2022-11-20T15:45:39;4.07;;;2.50;;
44816;SDS011;30529;53.570;9.964;2022-11-20T15:48:12;3.53;;;2.73;;
44816;SDS011;30529;53.570;9.964;2022-11-20T15:53:19;3.20;;;2.27;;
44816;SDS011;30529;53.570;9.964;2022-11-20T15:55:45;4.73;;;3.13;;
44816;SDS011;30529;53.570;9.964;2022-11-20T15:58:11;4.30;;;3.00;;
44816;SDS011;30529;53.570;9.964;2022-11-20T16:00:37;6.50;;;3.57;;
44816;SDS011;30529;53.570;9.964;2022-11-20T16:03:04;4.43;;;3.10;;
44816;SDS011;30529;53.570;9.964;2022-11-20T16:05:30;6.20;;;2.97;;
44816;SDS011;30529;53.570;9.964;2022-11-20T16:07:56;4.80;;;3.20;;
44816;SDS011;30529;53.570;9.964;2022-11-20T16:10:22;7.13;;;3.00;;
44816;SDS011;30529;53.570;9.964;2022-11-20T16:12:49;4.20;;;2.83;;
44816;SDS011;30529;53.570;9.964;2022-11-20T16:15:33;6.47;;;2.73;;
44816;SDS011;30529;53.570;9.964;2022-11-20T16:18:17;4.47;;;2.80;;
44816;SDS011;30529;53.570;9.964;2022-11-20T16:20:48;3.33;;;2.57;;
44816;SDS011;30529;53.570;9.964;2022-11-20T16:23:16;6.00;;;3.17;;
44816;SDS011;30529;53.570;9.964;2022-11-20T16:25:43;3.97;;;2.97;;
44816;SDS011;30529;53.570;9.964;2022-11-20T16:28:09;5.77;;;3.03;;
44816;SDS011;30529;53.570;9.964;2022-11-20T16:30:36;3.90;;;3.23;;
44816;SDS011;30529;53.570;9.964;2022-11-20T16:33:03;6.27;;;3.40;;
44816;SDS011;30529;53.570;9.964;2022-11-20T16:35:30;16.13;;;3.70;;
44816;SDS011;30529;53.570;9.964;2022-11-20T16:37:57;4.70;;;3.00;;
44816;SDS011;30529;53.570;9.964;2022-11-20T16:40:24;7.33;;;3.57;;
44816;SDS011;30529;53.570;9.964;2022-11-20T16:42:54;4.60;;;3.20;;
44816;SDS011;30529;53.570;9.964;2022-11-20T16:45:20;4.87;;;2.93;;
44816;SDS011;30529;53.570;9.964;2022-11-20T16:47:46;3.37;;;2.73;;
44816;SDS011;30529;53.570;9.964;2022-11-20T16:50:12;3.37;;;2.90;;